Silver Lake, WI

8:16 PM CST on February 07, 2016 (GMT -0600)
Right Side Of The Tracks | | Change Station
CLOSE
Current Station
Personal Weather Station
Location: Silver Lake, WI
Elevation: 764 ft
Nearby Weather Stations

Elev 764 ft 42.55 °N, 88.17 °W | Updated 11 minutes ago

Clear
Clear
34.5 °F
Feels Like 29 °F
N
5.8
Wind Variable Wind from West

Today
High -- | Low -- °F
--% Chance of Precip.
Yesterday
High -- | Low -- °F
Precip. -- in
Pressure 29.70 in
Visibility 10.0 miles
Clouds Clear
Windchill 29 °F
Dew Point 28 °F
Humidity 78%
Rainfall 0.00 in
Snow Depth Not available.
7:00 AM 5:13 PM
Waning Crescent, 0% visible
METAR KBUU 080155Z AUTO 24011G15KT 10SM CLR 01/M03 A2970 RMK AO2 T00061031
Pressure 29.70 in
Visibility 10.0 miles
Clouds Clear
Windchill 29 °F
Dew Point 28 °F
Humidity 78%
Rainfall 0.00 in
Snow Depth Not available.
7:00 AM 5:13 PM
Waning Crescent, 0% visible
METAR KBUU 080155Z AUTO 24011G15KT 10SM CLR 01/M03 A2970 RMK AO2 T00061031

10-Day Weather Forecast

Almanac

Astronomy

Feb. 07, 2016 Rise Set
Actual Time
Civil Twilight
Nautical Twilight
Astronomical Twilight
Moon
Length of Visible Light
Length of Day
Tomorrow will be .
, % of the Moon is Illuminated

Today's Extremes

State Highs State Lows

Community

WunderPhotos

Upload Photos

1,891,364 photos uploaded!

WunderBlog® & News

Nearby

Air Quality

  Air Quality AQ Index Pollutant
Not available.

Snow Depth

Station Depth Elevation

Earthquake Activity

City Distance Mag. Time & Date
Minimum magnitude displayed is 2.5.

Coastal Water Temperatures

Place Temperature

Stations

Nearby Weather Stations

Station Location Temp. Windchill Dew Point Humidity Wind Precip. Elev Updated Type
                   

Watches & Warnings

There are currently no watches in effect.